Time;durP1;ratioP1;P1;durP2;ratioP2;P2;SDS_P1;SDS_P2;PMS_P1;PMS_P2;Temp;Humidity;BMP_temperature;BMP_pressure;BME280_temperature;BME280_humidity;BME280_pressure;Samples;Min_cycle;Max_cycle;Signal;HPM_P1;HPM_P2
2023/11/25 00:15:09;;;;;;;;;;;;;;;;;;;;;
2023/11/25 00:17:36;;;;;;;2.90;1.37;;;;;;;3.44;87.52;94274.75;6092100;23;20200;-90
2023/11/25 00:20:22;;;;;;;3.43;1.70;;;;;;;3.34;87.50;94266.50;6093028;23;20283;-92
2023/11/25 00:23:28;;;;;;;4.53;1.43;;;;;;;3.42;87.38;94274.91;6093870;23;20174;-93
2023/11/25 00:28:39;;;;;;;1.97;1.40;;;;;;;3.50;86.39;94253.72;6151110;23;20202;-90
2023/11/25 00:31:36;;;;;;;3.37;1.40;;;;;;;3.56;86.38;94257.34;6152086;23;20178;-92
2023/11/25 00:34:50;;;;;;;1.87;1.37;;;;;;;3.60;85.45;94239.06;6151762;23;20171;-90
2023/11/25 00:37:42;;;;;;;;;;;;;;;;;;;;;
2023/11/25 00:40:24;;;;;;;1.90;1.20;;;;;;;3.66;83.41;94172.19;6122193;23;20274;-90
2023/11/25 00:46:18;;;;;;;2.07;1.10;;;;;;;3.54;82.49;94139.69;6103623;23;20183;-90
2023/11/25 00:49:20;;;;;;;1.60;1.20;;;;;;;3.52;81.56;94128.88;6110408;23;20175;-90
2023/11/25 00:51:51;;;;;;;3.53;1.70;;;;;;;3.54;82.25;94155.75;6123244;23;20179;-90
2023/11/25 01:00:47;;;;;;;2.20;1.10;;;;;;;3.40;81.80;94146.31;6025380;23;20270;-91
2023/11/25 01:06:37;;;;;;;1.40;1.20;;;;;;;3.33;89.83;94338.69;6060329;23;20796;-91
2023/11/25 01:09:08;;;;;;;1.13;1.00;;;;;;;3.22;91.57;94361.91;6062017;23;20180;-90
2023/11/25 01:11:49;;;;;;;2.43;1.20;;;;;;;3.21;91.23;94371.31;6122351;23;20511;-90
2023/11/25 01:35:58;;;;;;;1.43;0.87;;;;;;;2.98;98.43;94482.22;6179519;23;20206;-91
2023/11/25 02:15:43;;;;;;;;;;;;;;;;;;;;;
2023/11/25 02:18:22;;;;;;;0.80;0.80;;;;;;;2.77;90.58;94452.16;6180130;23;20208;-90
2023/11/25 02:20:58;;;;;;;1.27;0.70;;;;;;;2.77;90.19;94452.97;6181606;23;20206;-90
2023/11/25 02:23:32;;;;;;;0.63;0.63;;;;;;;2.85;89.87;94454.72;6181393;23;20241;-90
2023/11/25 02:26:05;;;;;;;1.57;0.90;;;;;;;2.84;90.09;94454.88;6176486;23;20199;-91
2023/11/25 02:32:37;;;;;;;0.93;0.70;;;;;;;2.81;86.76;94397.53;6131641;23;20170;-93
2023/11/25 02:41:31;;;;;;;0.73;0.73;;;;;;;2.74;86.47;94399.91;5978031;23;20670;-90
2023/11/25 02:47:14;;;;;;;1.97;0.90;;;;;;;2.72;81.58;94300.16;6018996;23;20191;-90
2023/11/25 02:50:12;;;;;;;1.20;0.90;;;;;;;2.82;81.76;94305.09;6151485;23;20167;-89
2023/11/25 03:01:11;;;;;;;2.50;0.90;;;;;;;2.70;80.77;94296.19;6150318;23;20194;-91
2023/11/25 03:03:59;;;;;;;2.87;1.20;;;;;;;2.61;80.48;94285.25;6150766;23;20842;-90
2023/11/25 03:09:15;;;;;;;4.83;1.00;;;;;;;2.54;79.67;94279.22;6148303;23;20186;-91
2023/11/25 03:11:49;;;;;;;1.83;0.70;;;;;;;2.58;77.74;94233.97;6150842;23;20218;-90
2023/11/25 03:14:30;;;;;;;1.30;0.80;;;;;;;2.57;77.51;94233.19;6150464;23;20167;-90
2023/11/25 03:17:07;;;;;;;1.97;0.77;;;;;;;2.57;76.67;94192.53;6150973;23;20281;-90
2023/11/25 03:19:50;;;;;;;1.13;0.80;;;;;;;2.60;77.12;94222.69;6150936;23;20171;-89
2023/11/25 03:22:49;;;;;;;0.80;0.70;;;;;;;2.67;76.22;94207.59;6150856;23;20178;-90
2023/11/25 03:25:38;;;;;;;0.70;0.70;;;;;;;2.58;75.39;94186.50;6139829;23;20175;-90
2023/11/25 03:31:03;;;;;;;1.93;0.70;;;;;;;2.65;75.75;94219.69;6179722;23;20166;-88
2023/11/25 03:34:15;;;;;;;1.50;0.83;;;;;;;2.63;75.72;94222.38;6180129;23;20194;-88
2023/11/25 03:40:35;;;;;;;1.43;0.70;;;;;;;2.69;75.56;94242.03;6055654;23;20174;-90
2023/11/25 03:43:39;;;;;;;;;;;;;;;;;;;;;
2023/11/25 03:49:46;;;;;;;1.10;0.70;;;;;;;2.62;76.29;94314.78;6034450;23;20177;-89
2023/11/25 03:52:31;;;;;;;1.67;0.80;;;;;;;2.64;76.37;94327.34;6184160;23;20166;-90
2023/11/25 04:01:15;;;;;;;1.53;0.97;;;;;;;2.69;75.60;94314.97;6170786;23;20221;-90
2023/11/25 04:04:01;;;;;;;2.00;1.03;;;;;;;2.76;74.79;94308.25;6180439;23;20248;-87
2023/11/25 04:07:08;;;;;;;2.37;0.83;;;;;;;2.76;75.25;94311.59;6182454;23;20198;-91
2023/11/25 04:09:46;;;;;;;1.87;0.90;;;;;;;2.64;75.09;94314.63;6182981;23;20174;-91
2023/11/25 04:12:29;;;;;;;0.80;0.80;;;;;;;2.69;75.59;94342.91;6182808;23;20169;-90
2023/11/25 04:15:28;;;;;;;1.43;0.90;;;;;;;2.73;75.07;94321.28;6182771;23;20229;-91
2023/11/25 04:18:24;;;;;;;1.90;0.90;;;;;;;2.75;74.18;94292.22;6170478;23;20199;-89
2023/11/25 04:21:26;;;;;;;;;;;;;;;;;;;;;
2023/11/25 04:27:36;;;;;;;1.23;0.70;;;;;;;2.76;74.56;94329.38;6180230;23;20198;-90
2023/11/25 04:30:19;;;;;;;2.00;1.03;;;;;;;2.74;74.69;94348.28;6152073;23;20249;-89
2023/11/25 04:36:32;;;;;;;0.80;0.80;;;;;;;2.86;75.31;94389.44;6176550;23;20236;-90
2023/11/25 04:39:11;;;;;;;1.43;0.97;;;;;;;2.67;74.82;94363.38;6182249;23;20158;-90
2023/11/25 04:42:09;;;;;;;2.17;1.03;;;;;;;2.73;74.86;94383.06;6182147;23;20221;-90
2023/11/25 04:45:20;;;;;;;1.33;0.90;;;;;;;2.82;75.18;94396.59;6182380;23;20178;-90
2023/11/25 04:48:04;;;;;;;1.13;0.80;;;;;;;2.83;74.70;94388.00;6181419;23;20260;-90
2023/11/25 04:51:15;;;;;;;2.90;1.00;;;;;;;2.80;74.91;94395.16;6182486;23;20177;-90
2023/11/25 04:53:58;;;;;;;0.70;0.70;;;;;;;2.80;75.23;94400.22;6181741;23;20197;-90
2023/11/25 04:59:49;;;;;;;1.83;1.00;;;;;;;2.82;74.34;94383.88;6175448;23;20515;-91
2023/11/25 05:02:57;;;;;;;1.27;0.90;;;;;;;2.88;73.89;94383.25;6181905;23;20673;-90
2023/11/25 05:05:34;;;;;;;1.73;0.90;;;;;;;2.92;73.59;94374.31;6181970;23;20200;-93
2023/11/25 05:08:21;;;;;;;1.90;0.93;;;;;;;2.93;72.81;94354.78;6179846;23;20554;-91
2023/11/25 05:10:57;;;;;;;1.03;0.93;;;;;;;2.92;73.91;94404.84;6181656;23;20170;-91
2023/11/25 05:19:33;;;;;;;2.43;0.83;;;;;;;2.90;72.91;94362.72;6175822;23;20170;-92
2023/11/25 05:22:05;;;;;;;0.90;0.70;;;;;;;2.91;72.40;94359.22;6182191;23;20174;-92
2023/11/25 05:24:34;;;;;;;2.50;0.80;;;;;;;2.91;72.10;94343.97;6180655;23;20201;-95
2023/11/25 05:27:08;;;;;;;1.80;1.10;;;;;;;2.99;71.82;94346.53;6181368;23;20197;-92
2023/11/25 05:29:59;;;;;;;1.80;1.00;;;;;;;3.07;71.83;94349.88;6181949;23;20154;-92
2023/11/25 05:32:36;;;;;;;2.53;1.00;;;;;;;3.07;71.40;94342.25;6182006;23;20237;-91
2023/11/25 05:35:19;;;;;;;2.83;1.10;;;;;;;3.08;72.15;94364.16;6181104;23;20170;-89
2023/11/25 05:38:01;;;;;;;2.47;0.80;;;;;;;3.07;71.22;94339.69;6181308;23;20194;-89
2023/11/25 05:40:36;;;;;;;3.30;0.93;;;;;;;3.09;70.96;94342.84;6180684;23;20174;-89
2023/11/25 05:43:18;;;;;;;1.57;0.93;;;;;;;3.15;71.64;94366.84;6181794;23;20252;-89
2023/11/25 05:45:58;;;;;;;1.67;0.90;;;;;;;3.13;71.42;94359.38;6180490;23;20197;-90
2023/11/25 05:51:32;;;;;;;6.27;1.13;;;;;;;3.17;71.27;94371.78;6181374;23;20170;-92
2023/11/25 05:54:12;;;;;;;1.53;0.90;;;;;;;3.07;70.95;94357.50;6180871;23;20162;-92
2023/11/25 05:56:39;;;;;;;0.97;0.87;;;;;;;3.05;71.26;94372.13;6181981;23;20194;-89
2023/11/25 05:59:38;;;;;;;1.13;0.80;;;;;;;3.06;70.96;94355.91;6181386;23;20174;-91
2023/11/25 06:02:41;;;;;;;1.50;0.90;;;;;;;3.05;71.02;94356.88;6182375;23;20817;-89
2023/11/25 06:08:20;;;;;;;1.67;0.93;;;;;;;2.97;70.58;94348.44;6178550;23;20257;-91
2023/11/25 06:10:54;;;;;;;1.97;1.00;;;;;;;2.94;71.20;94354.63;6180235;23;20646;-91
2023/11/25 06:16:16;;;;;;;1.37;0.90;;;;;;;2.91;70.46;94328.72;6177696;23;20216;-92
2023/11/25 06:19:14;;;;;;;3.00;1.20;;;;;;;2.92;70.49;94320.16;6180962;23;20178;-92
2023/11/25 06:21:58;;;;;;;;;;;;;;;;;;;;;
2023/11/25 06:24:36;;;;;;;1.47;1.00;;;;;;;2.97;70.12;94323.00;6182250;23;20170;-91
2023/11/25 06:27:03;;;;;;;2.93;1.03;;;;;;;2.97;70.42;94321.28;6181109;23;20575;-89
2023/11/25 06:29:39;;;;;;;4.90;1.10;;;;;;;2.95;70.05;94313.00;6180335;23;20174;-90
2023/11/25 06:32:46;;;;;;;2.87;1.20;;;;;;;2.88;69.30;94296.03;6180465;23;20190;-89
2023/11/25 06:35:15;;;;;;;1.93;0.87;;;;;;;2.86;69.31;94278.41;6180003;23;20173;-88
2023/11/25 06:37:44;;;;;;;2.87;1.07;;;;;;;2.89;69.54;94282.34;6180353;23;20194;-91
2023/11/25 06:40:33;;;;;;;2.13;1.13;;;;;;;2.86;69.46;94291.13;6180570;23;20174;-90
2023/11/25 06:49:15;;;;;;;4.77;2.07;;;;;;;2.84;69.69;94302.38;5997307;23;20181;-91
2023/11/25 07:14:21;;;;;;;2.13;1.10;;;;;;;2.79;69.04;94285.06;6169539;23;20630;-90
2023/11/25 07:20:13;;;;;;;0.83;0.80;;;;;;;2.81;69.52;94323.84;6171315;23;20173;-90
2023/11/25 07:22:53;;;;;;;1.63;1.13;;;;;;;2.67;69.48;94315.13;6179945;23;20212;-90
2023/11/25 07:25:45;;;;;;;5.13;1.13;;;;;;;2.65;69.76;94323.84;6179084;23;20174;-89
2023/11/25 07:37:58;;;;;;;4.50;1.00;;;;;;;3.14;72.15;94388.16;6123535;23;20199;-88
2023/11/25 07:40:57;;;;;;;3.00;1.40;;;;;;;3.48;87.54;94849.25;6181325;23;20155;-89
2023/11/25 07:43:49;;;;;;;6.57;1.77;;;;;;;3.77;84.99;94803.09;6059819;23;20204;-89
2023/11/25 07:46:19;;;;;;;1.23;1.13;;;;;;;4.10;80.59;94689.38;6059485;23;20594;-89
2023/11/25 07:57:42;;;;;;;3.30;1.43;;;;;;;4.60;65.52;94050.41;6149340;23;20191;-90
2023/11/25 08:00:25;;;;;;;2.37;1.17;;;;;;;4.43;64.05;93968.25;6150089;23;20246;-92
2023/11/25 08:03:29;;;;;;;2.50;1.37;;;;;;;4.40;64.55;93958.44;6150323;23;20210;-90
2023/11/25 08:13:03;;;;;;;1.80;1.00;;;;;;;4.07;64.11;93966.44;6011910;23;20169;-91
2023/11/25 08:19:29;;;;;;;3.93;1.80;;;;;;;4.36;63.71;93970.72;6044168;23;20181;-91
2023/11/25 08:25:21;;;;;;;1.20;1.10;;;;;;;3.99;63.48;93963.22;6150576;23;20151;-91
2023/11/25 08:30:54;;;;;;;2.57;1.10;;;;;;;3.98;64.39;94004.91;6137095;23;20710;-91
2023/11/25 08:33:25;;;;;;;4.10;1.50;;;;;;;4.10;64.29;94013.69;6150238;23;20194;-89
2023/11/25 08:36:13;;;;;;;2.03;1.30;;;;;;;4.17;63.58;94009.47;6149278;23;20233;-89
2023/11/25 08:38:56;;;;;;;4.17;1.23;;;;;;;3.96;63.79;94005.09;6150097;23;20179;-90
2023/11/25 08:41:29;;;;;;;3.70;1.20;;;;;;;3.90;64.08;94027.91;6151550;23;20167;-90
2023/11/25 08:44:06;;;;;;;2.10;1.40;;;;;;;3.83;64.79;94055.03;6152066;23;20250;-90
2023/11/25 08:47:06;;;;;;;2.37;1.70;;;;;;;3.83;65.47;94081.28;6150592;23;20237;-90
2023/11/25 08:49:33;;;;;;;2.33;1.50;;;;;;;3.96;64.60;94061.09;6150489;23;20549;-88
2023/11/25 08:51:59;;;;;;;2.53;1.50;;;;;;;3.88;64.50;94034.91;6151237;23;21039;-89
2023/11/25 08:54:36;;;;;;;3.10;1.60;;;;;;;3.88;65.12;94080.72;6150445;23;20629;-87
2023/11/25 08:57:10;;;;;;;4.47;1.40;;;;;;;3.86;64.87;94083.44;6149070;23;20205;-89
2023/11/25 08:59:39;;;;;;;2.93;1.63;;;;;;;3.84;64.11;94046.44;6150402;23;20167;-89
2023/11/25 09:02:21;;;;;;;4.13;1.57;;;;;;;3.74;64.48;94051.75;6150823;23;20622;-88
2023/11/25 09:04:48;;;;;;;2.73;1.40;;;;;;;3.77;64.83;94085.28;6151325;23;20904;-89
2023/11/25 09:07:23;;;;;;;3.10;1.60;;;;;;;3.67;65.21;94110.16;6150251;23;20203;-88
2023/11/25 09:09:50;;;;;;;3.97;1.23;;;;;;;3.51;64.60;94087.38;6150671;23;20159;-89
2023/11/25 09:12:19;;;;;;;2.97;1.20;;;;;;;3.55;65.51;94129.34;6151029;23;20219;-89
2023/11/25 09:14:46;;;;;;;2.37;1.20;;;;;;;3.65;65.65;94152.81;6150972;23;20199;-89
2023/11/25 09:17:15;;;;;;;2.97;1.37;;;;;;;3.67;65.49;94153.41;6150415;23;20191;-89
2023/11/25 09:19:45;;;;;;;2.70;1.20;;;;;;;3.59;65.09;94142.53;6150340;23;20206;-89
2023/11/25 09:22:15;;;;;;;3.70;1.60;;;;;;;3.55;65.58;94167.50;6150737;23;20205;-89
2023/11/25 09:24:44;;;;;;;4.73;1.80;;;;;;;3.50;65.86;94177.38;6150880;23;20182;-88
2023/11/25 09:27:28;;;;;;;1.60;1.30;;;;;;;3.43;65.63;94163.78;6149132;23;20203;-88
2023/11/25 09:29:58;;;;;;;1.97;1.37;;;;;;;3.51;66.24;94191.69;6150422;23;20623;-88
2023/11/25 09:32:27;;;;;;;3.50;1.53;;;;;;;3.52;66.04;94200.13;6149292;23;20166;-86
2023/11/25 09:34:54;;;;;;;4.23;1.70;;;;;;;3.44;66.34;94213.69;6151011;23;20178;-86
2023/11/25 09:37:20;;;;;;;2.87;1.77;;;;;;;3.51;66.62;94227.31;6149158;23;20230;-87
2023/11/25 09:39:47;;;;;;;3.77;1.70;;;;;;;3.42;66.46;94228.31;6149474;23;20206;-88
2023/11/25 09:42:13;;;;;;;5.80;1.67;;;;;;;3.43;66.63;94235.78;6149746;23;20222;-87
2023/11/25 09:44:41;;;;;;;3.27;1.53;;;;;;;3.40;66.42;94218.31;6149788;23;20179;-87
2023/11/25 09:47:09;;;;;;;2.67;1.40;;;;;;;3.22;66.75;94235.56;6149005;23;20202;-87
2023/11/25 09:49:35;;;;;;;4.10;2.00;;;;;;;3.09;67.25;94237.81;6149042;23;20663;-87
2023/11/25 09:52:04;;;;;;;3.27;1.50;;;;;;;3.06;67.40;94266.94;6150096;23;20269;-86
2023/11/25 09:54:31;;;;;;;2.27;1.43;;;;;;;3.09;67.77;94271.66;6149749;23;20653;-87
2023/11/25 09:56:59;;;;;;;3.67;1.40;;;;;;;3.04;67.89;94280.75;6149411;23;20199;-87
2023/11/25 09:59:29;;;;;;;2.63;1.53;;;;;;;3.04;69.77;94367.19;6149866;23;20261;-88
2023/11/25 10:01:57;;;;;;;3.03;1.43;;;;;;;3.09;67.99;94312.34;6150177;23;20174;-88
2023/11/25 10:04:27;;;;;;;3.07;1.60;;;;;;;3.18;68.13;94322.50;6150837;23;20175;-87
2023/11/25 10:06:55;;;;;;;3.63;1.60;;;;;;;3.17;67.62;94296.28;6150919;23;20818;-88
2023/11/25 10:09:22;;;;;;;2.33;1.43;;;;;;;3.23;67.83;94298.19;6150327;23;20226;-88
2023/11/25 10:11:49;;;;;;;5.97;2.10;;;;;;;3.12;68.20;94316.31;6151183;23;20187;-88
2023/11/25 10:14:17;;;;;;;2.70;1.43;;;;;;;3.04;67.91;94301.09;6150401;23;20969;-88
2023/11/25 10:16:45;;;;;;;2.60;1.63;;;;;;;2.96;68.33;94306.19;6151012;23;20226;-87
2023/11/25 10:19:19;;;;;;;2.77;1.50;;;;;;;2.98;68.57;94329.69;6151091;23;20230;-87
2023/11/25 10:21:48;;;;;;;1.83;1.30;;;;;;;2.89;68.79;94330.63;6151722;23;20175;-88
2023/11/25 10:24:20;;;;;;;3.03;1.77;;;;;;;3.05;68.69;94338.28;6150769;23;20222;-87
2023/11/25 10:26:49;;;;;;;3.43;1.50;;;;;;;3.01;67.96;94319.19;6151731;23;20587;-87
2023/11/25 10:29:19;;;;;;;5.37;1.70;;;;;;;3.01;68.51;94324.28;6151130;23;20207;-87
2023/11/25 10:31:52;;;;;;;2.20;1.50;;;;;;;3.07;68.74;94346.53;6151347;23;20181;-87
2023/11/25 10:34:21;;;;;;;3.67;1.57;;;;;;;3.20;68.31;94323.13;6151392;23;20159;-88
2023/11/25 10:36:49;;;;;;;3.20;1.87;;;;;;;3.23;68.05;94317.72;6150410;23;20198;-88
2023/11/25 10:39:17;;;;;;;3.37;1.70;;;;;;;3.29;67.85;94299.25;6151501;23;20253;-88
2023/11/25 10:41:52;;;;;;;4.20;1.80;;;;;;;3.21;67.93;94302.63;6150862;23;20170;-88
2023/11/25 10:44:21;;;;;;;4.63;2.40;;;;;;;3.23;68.06;94300.72;6150764;23;20210;-88
2023/11/25 10:46:47;;;;;;;5.87;2.43;;;;;;;3.28;68.10;94328.19;6149391;23;20202;-87
2023/11/25 10:49:15;;;;;;;5.97;2.20;;;;;;;3.41;68.41;94334.38;6150262;23;20175;-88
2023/11/25 10:51:45;;;;;;;3.90;1.97;;;;;;;3.43;68.20;94327.38;6151159;23;20198;-87
2023/11/25 10:54:16;;;;;;;4.17;1.83;;;;;;;3.35;67.96;94304.50;6150783;23;20175;-87
2023/11/25 10:56:45;;;;;;;4.00;1.80;;;;;;;3.37;68.48;94328.03;6150697;23;20259;-88
2023/11/25 10:59:13;;;;;;;4.73;1.97;;;;;;;3.32;68.06;94314.19;6150973;23;20583;-87
2023/11/25 11:01:43;;;;;;;3.37;1.83;;;;;;;3.19;67.96;94309.63;6150822;23;20546;-87
2023/11/25 11:04:23;;;;;;;7.07;2.03;;;;;;;3.28;68.75;94328.97;6149599;23;20199;-87
2023/11/25 11:06:54;;;;;;;3.33;1.80;;;;;;;3.47;68.28;94333.69;6150250;23;20210;-87
2023/11/25 11:09:30;;;;;;;4.63;1.83;;;;;;;3.51;69.79;94402.06;6151544;23;20757;-87
2023/11/25 11:12:23;;;;;;;4.73;2.07;;;;;;;4.05;87.60;94843.59;6153924;23;20159;-88
2023/11/25 11:15:00;;;;;;;2.37;1.60;;;;;;;4.17;70.64;94394.06;6153050;23;20155;-87
2023/11/25 11:17:34;;;;;;;3.43;1.80;;;;;;;4.33;69.20;94298.91;6150129;23;20194;-87
2023/11/25 11:20:05;;;;;;;4.00;1.97;;;;;;;4.29;67.97;94262.00;6150291;23;20417;-87
2023/11/25 11:22:35;;;;;;;3.90;2.20;;;;;;;3.94;66.98;94187.78;6150164;23;20183;-87
2023/11/25 11:25:14;;;;;;;4.17;1.80;;;;;;;3.91;67.74;94223.75;6150363;23;20186;-86
2023/11/25 11:27:56;;;;;;;4.50;1.90;;;;;;;3.77;67.75;94209.22;6150407;23;20202;-87
2023/11/25 11:30:31;;;;;;;4.97;1.63;;;;;;;3.59;68.22;94229.84;6150504;23;20163;-87
2023/11/25 11:33:05;;;;;;;5.97;2.07;;;;;;;3.49;68.42;94257.22;6150387;23;20159;-88
2023/11/25 11:35:39;;;;;;;4.23;1.70;;;;;;;3.57;69.13;94284.38;6149444;23;20206;-87
2023/11/25 11:38:23;;;;;;;3.57;2.10;;;;;;;3.60;68.32;94282.31;6150044;23;20490;-87
2023/11/25 11:40:52;;;;;;;3.50;1.80;;;;;;;3.40;68.76;94270.94;6150707;23;20245;-87
2023/11/25 11:43:19;;;;;;;4.57;2.23;;;;;;;3.29;69.31;94294.97;6150492;23;20205;-87
2023/11/25 11:45:45;;;;;;;5.47;1.90;;;;;;;3.18;69.57;94302.97;6150166;23;20190;-87
2023/11/25 11:48:14;;;;;;;3.47;1.80;;;;;;;3.16;70.05;94321.88;6149889;23;20281;-87
2023/11/25 11:50:42;;;;;;;2.67;2.07;;;;;;;3.24;69.47;94316.78;6151611;23;20181;-88
2023/11/25 11:53:15;;;;;;;4.23;1.87;;;;;;;3.21;69.65;94310.25;6149744;23;20633;-87
2023/11/25 11:55:44;;;;;;;2.43;1.80;;;;;;;3.08;69.93;94327.75;6150810;23;20198;-87
2023/11/25 11:58:17;;;;;;;4.40;2.03;;;;;;;3.03;70.41;94337.63;6150737;23;20583;-87
2023/11/25 12:00:48;;;;;;;3.60;1.87;;;;;;;2.97;70.52;94350.97;6150364;23;20238;-87
2023/11/25 12:03:15;;;;;;;5.30;2.03;;;;;;;2.87;71.14;94374.03;6150711;23;20201;-87
2023/11/25 12:05:45;;;;;;;3.50;2.40;;;;;;;2.87;71.88;94394.38;6150863;23;20237;-88
2023/11/25 12:08:14;;;;;;;5.57;2.00;;;;;;;2.94;71.83;94409.75;6157713;23;20210;-88
2023/11/25 12:10:41;;;;;;;2.63;1.63;;;;;;;3.12;71.29;94398.47;6153129;23;20778;-88
2023/11/25 12:13:12;;;;;;;3.20;1.90;;;;;;;3.18;71.08;94374.16;6152906;23;20517;-87
2023/11/25 12:15:39;;;;;;;3.83;1.50;;;;;;;3.24;70.34;94348.09;6150278;23;20178;-87
2023/11/25 12:18:06;;;;;;;3.90;1.47;;;;;;;3.28;69.97;94325.66;6151663;23;20222;-88
2023/11/25 12:20:36;;;;;;;2.67;1.83;;;;;;;3.34;70.15;94314.84;6151574;23;20286;-87
2023/11/25 12:23:08;;;;;;;3.00;1.80;;;;;;;3.37;70.09;94305.13;6149670;23;20793;-88
2023/11/25 12:25:36;;;;;;;2.93;1.60;;;;;;;3.35;69.60;94284.16;6152296;23;20195;-87
2023/11/25 12:28:06;;;;;;;6.83;1.80;;;;;;;3.49;69.45;94277.56;6152141;23;20256;-88
2023/11/25 12:30:35;;;;;;;2.17;1.60;;;;;;;3.41;68.82;94252.19;6152623;23;20163;-88
2023/11/25 12:33:02;;;;;;;3.83;1.40;;;;;;;3.43;69.07;94250.25;6152551;23;20175;-87
2023/11/25 12:35:31;;;;;;;3.00;1.60;;;;;;;3.44;70.41;94290.00;6152722;23;20191;-87
2023/11/25 12:38:01;;;;;;;2.93;1.73;;;;;;;3.68;71.65;94396.78;6152886;23;20279;-88
2023/11/25 12:40:29;;;;;;;3.70;1.40;;;;;;;3.60;68.31;94205.19;6153457;23;20175;-88
2023/11/25 12:42:58;;;;;;;2.03;1.70;;;;;;;3.69;67.89;94202.41;6153017;23;20195;-88
2023/11/25 12:45:47;;;;;;;2.97;1.50;;;;;;;3.62;68.05;94188.78;6152088;23;20174;-88
2023/11/25 12:48:19;;;;;;;3.13;1.53;;;;;;;3.56;67.77;94183.56;6154225;23;20662;-88
2023/11/25 12:51:03;;;;;;;4.87;1.47;;;;;;;3.45;67.83;94170.28;6153975;23;20558;-87
2023/11/25 12:53:32;;;;;;;4.00;1.67;;;;;;;3.43;67.86;94195.09;6153362;23;20698;-88
2023/11/25 12:56:01;;;;;;;4.83;1.80;;;;;;;3.50;68.34;94187.56;6152873;23;20194;-88
2023/11/25 12:58:28;;;;;;;1.93;1.50;;;;;;;3.52;67.78;94164.50;6152656;23;20178;-89
2023/11/25 13:00:57;;;;;;;6.57;1.70;;;;;;;3.39;67.82;94170.16;6153417;23;20171;-88
2023/11/25 13:03:25;;;;;;;3.50;1.90;;;;;;;3.36;68.52;94198.47;6153255;23;20199;-87
2023/11/25 13:05:59;;;;;;;3.60;1.83;;;;;;;3.44;67.53;94173.78;6152742;23;20171;-89
2023/11/25 13:08:28;;;;;;;2.10;1.53;;;;;;;3.50;67.65;94161.34;6152663;23;20187;-89
2023/11/25 13:10:57;;;;;;;3.33;1.60;;;;;;;3.51;67.53;94158.63;6153087;23;20202;-88
2023/11/25 13:13:27;;;;;;;2.07;1.30;;;;;;;3.42;67.40;94140.09;6151941;23;20230;-87
2023/11/25 13:15:58;;;;;;;2.57;1.67;;;;;;;3.38;67.29;94133.75;6153076;23;20705;-88
2023/11/25 13:18:26;;;;;;;4.63;1.70;;;;;;;3.40;67.51;94133.56;6152231;23;20227;-88
2023/11/25 13:20:56;;;;;;;2.70;1.73;;;;;;;3.41;67.35;94132.63;6152848;23;20899;-87
2023/11/25 13:23:23;;;;;;;3.53;2.10;;;;;;;3.41;67.31;94125.78;6152293;23;20688;-87
2023/11/25 13:25:52;;;;;;;4.70;2.10;;;;;;;3.45;67.54;94144.06;6152124;23;20178;-88
2023/11/25 13:28:25;;;;;;;3.60;2.00;;;;;;;3.44;67.96;94145.81;6151780;23;20197;-87
2023/11/25 13:30:54;;;;;;;5.30;1.90;;;;;;;3.42;67.88;94152.00;6152824;23;20155;-88
2023/11/25 13:33:26;;;;;;;3.53;1.93;;;;;;;3.47;67.80;94165.78;6152728;23;20364;-89
2023/11/25 13:35:56;;;;;;;4.87;1.60;;;;;;;3.38;68.13;94150.75;6153045;23;20499;-88
2023/11/25 13:38:29;;;;;;;2.30;1.60;;;;;;;3.43;68.57;94166.31;6152451;23;20174;-88
2023/11/25 13:40:58;;;;;;;2.90;1.73;;;;;;;3.51;68.27;94168.81;6153030;23;20170;-88
2023/11/25 13:43:25;;;;;;;2.50;1.60;;;;;;;3.39;68.76;94175.25;6152571;23;20269;-88
2023/11/25 13:45:57;;;;;;;4.47;1.73;;;;;;;3.25;69.58;94198.84;6151324;23;20642;-88
2023/11/25 13:48:25;;;;;;;2.33;1.43;;;;;;;3.37;69.47;94222.94;6152041;23;20611;-88
2023/11/25 13:50:55;;;;;;;3.87;1.80;;;;;;;3.32;69.62;94223.44;6152690;23;20182;-87
2023/11/25 13:53:24;;;;;;;4.53;1.70;;;;;;;3.37;69.47;94207.69;6151445;23;20171;-88
2023/11/25 13:55:51;;;;;;;4.17;1.47;;;;;;;3.36;69.43;94204.34;6151942;23;20642;-88
2023/11/25 13:58:17;;;;;;;3.40;1.53;;;;;;;3.40;69.44;94222.59;6151571;23;20202;-88
2023/11/25 14:00:44;;;;;;;2.30;1.70;;;;;;;3.36;70.35;94249.31;6151078;23;20533;-88
2023/11/25 14:03:12;;;;;;;2.67;1.43;;;;;;;3.36;70.43;94259.50;6151604;23;20178;-87
2023/11/25 14:05:43;;;;;;;2.70;1.70;;;;;;;3.34;70.81;94269.84;6151342;23;20194;-88
2023/11/25 14:08:12;;;;;;;3.17;1.97;;;;;;;3.23;71.24;94288.00;6151675;23;20682;-87
2023/11/25 14:10:39;;;;;;;3.33;1.90;;;;;;;3.33;71.52;94306.41;6152213;23;20218;-87
2023/11/25 14:13:07;;;;;;;2.90;2.03;;;;;;;3.25;71.77;94318.38;6151600;23;20807;-88
2023/11/25 14:15:39;;;;;;;5.20;1.80;;;;;;;3.32;72.93;94365.84;6151479;23;20183;-87
2023/11/25 14:18:42;;;;;;;2.87;1.87;;;;;;;3.81;98.07;94850.22;6151429;23;20253;-89
2023/11/25 14:21:10;;;;;;;4.80;1.93;;;;;;;4.13;82.54;94582.06;6151716;23;20205;-86
2023/11/25 14:23:36;;;;;;;3.50;1.80;;;;;;;3.71;76.81;94362.56;6151397;23;20298;-87
2023/11/25 14:26:04;;;;;;;4.60;1.77;;;;;;;3.58;77.30;94385.22;6151371;23;20242;-88
2023/11/25 14:28:31;;;;;;;3.43;1.70;;;;;;;3.38;78.24;94416.09;6151572;23;20186;-87
2023/11/25 14:31:02;;;;;;;3.30;1.70;;;;;;;3.54;80.15;94508.63;6150992;23;20518;-87
2023/11/25 14:33:48;;;;;;;4.57;2.03;;;;;;;4.14;100.00;94932.63;6150939;23;20694;-90
2023/11/25 14:36:17;;;;;;;5.10;2.10;;;;;;;3.83;83.61;94592.13;6145987;23;20528;-87
2023/11/25 14:38:43;;;;;;;6.47;2.23;;;;;;;3.56;82.96;94573.66;6151715;23;20182;-87
2023/11/25 14:41:10;;;;;;;6.43;2.30;;;;;;;3.44;84.08;94600.38;6151141;23;20177;-86
2023/11/25 14:43:36;;;;;;;3.40;1.80;;;;;;;3.05;86.69;94661.16;6151121;23;20199;-87
2023/11/25 14:46:03;;;;;;;4.97;1.97;;;;;;;2.90;89.46;94727.00;6150655;23;20638;-86
2023/11/25 14:48:29;;;;;;;6.87;2.23;;;;;;;2.89;91.15;94770.38;6151356;23;20179;-87
2023/11/25 14:50:56;;;;;;;4.93;1.97;;;;;;;2.89;91.91;94781.34;6154871;23;20171;-86
2023/11/25 14:53:24;;;;;;;3.67;1.80;;;;;;;2.82;93.46;94797.34;6156356;23;20639;-87
2023/11/25 14:55:50;;;;;;;4.23;2.00;;;;;;;2.91;92.78;94801.53;6154975;23;20258;-86
2023/11/25 14:58:17;;;;;;;2.40;1.93;;;;;;;2.94;93.14;94807.13;6151206;23;20199;-87
2023/11/25 15:00:45;;;;;;;4.70;2.00;;;;;;;3.05;92.41;94811.19;6155125;23;20476;-86
2023/11/25 15:03:12;;;;;;;5.53;2.23;;;;;;;2.96;91.69;94781.56;6155902;23;20233;-87
2023/11/25 15:05:38;;;;;;;4.67;2.17;;;;;;;2.89;91.64;94786.44;6152946;23;20241;-86
2023/11/25 15:08:05;;;;;;;6.10;2.43;;;;;;;2.94;90.69;94789.31;6152168;23;20214;-86
2023/11/25 15:10:34;;;;;;;4.73;2.40;;;;;;;2.97;90.65;94786.50;6153848;23;20182;-86
2023/11/25 15:13:00;;;;;;;4.47;2.00;;;;;;;2.75;91.55;94797.13;6154972;23;20635;-84
2023/11/25 15:15:29;;;;;;;4.33;2.13;;;;;;;2.75;93.00;94825.09;6154699;23;20569;-86
2023/11/25 15:17:55;;;;;;;4.80;2.20;;;;;;;2.84;93.70;94848.84;6154576;23;20198;-87
2023/11/25 15:20:23;;;;;;;3.13;1.93;;;;;;;2.80;93.61;94842.44;6153623;23;20175;-85
2023/11/25 15:22:50;;;;;;;4.50;2.23;;;;;;;2.90;92.54;94836.31;6151035;23;20186;-86
2023/11/25 15:25:17;;;;;;;5.87;2.30;;;;;;;2.89;93.00;94839.81;6152172;23;20218;-86
2023/11/25 15:27:45;;;;;;;5.90;2.03;;;;;;;2.78;92.49;94829.88;6151255;23;20272;-86
2023/11/25 15:30:14;;;;;;;5.20;2.50;;;;;;;2.86;93.23;94849.50;6152063;23;20185;-86
2023/11/25 15:32:42;;;;;;;4.50;2.00;;;;;;;2.86;93.40;94847.75;6150751;23;20186;-87
2023/11/25 15:35:09;;;;;;;5.47;2.10;;;;;;;2.73;94.45;94863.38;6150297;23;20171;-87
2023/11/25 15:37:50;;;;;;;3.67;1.87;;;;;;;2.74;95.49;94880.22;6149754;23;20206;-88
2023/11/25 15:40:17;;;;;;;2.00;1.70;;;;;;;2.75;96.65;94891.19;6151106;23;20166;-87
2023/11/25 15:42:52;;;;;;;4.43;1.90;;;;;;;2.70;97.37;94906.06;6152474;23;20634;-87
2023/11/25 15:45:23;;;;;;;4.10;1.97;;;;;;;2.65;97.67;94906.50;6152902;23;20600;-87
2023/11/25 15:47:50;;;;;;;5.70;2.57;;;;;;;2.77;98.24;94917.25;6152253;23;20187;-87
2023/11/25 15:50:17;;;;;;;8.67;2.37;;;;;;;2.72;98.67;94925.31;6152937;23;20178;-87
2023/11/25 15:52:43;;;;;;;5.50;2.60;;;;;;;2.61;100.00;94939.97;6152271;23;20175;-88
2023/11/25 15:55:14;;;;;;;6.10;2.43;;;;;;;2.66;100.00;94945.44;6151797;23;20182;-87
2023/11/25 15:57:44;;;;;;;4.67;2.70;;;;;;;2.70;100.00;94955.13;6151673;23;20201;-87
2023/11/25 16:00:14;;;;;;;4.47;2.60;;;;;;;2.63;100.00;94951.59;6152351;23;20155;-87
2023/11/25 16:02:41;;;;;;;6.73;2.67;;;;;;;2.64;100.00;94957.47;6152137;23;20183;-88
2023/11/25 16:05:12;;;;;;;4.83;2.73;;;;;;;2.57;100.00;94946.28;6152224;23;20728;-87
2023/11/25 16:07:38;;;;;;;8.80;2.80;;;;;;;2.66;100.00;94943.69;6150917;23;20199;-88